sensor_id;sensor_type;location;lat;lon;timestamp;P1;durP1;ratioP1;P2;durP2;ratioP2
73315;SDS011;61545;53.726;-0.444;2023-03-02T00:01:34;8.3;;;1.6;;
73315;SDS011;61545;53.726;-0.444;2023-03-02T00:06:31;10.2;;;2;;
73315;SDS011;61545;53.726;-0.444;2023-03-02T00:11:31;10.2;;;2;;
73315;SDS011;61545;53.726;-0.444;2023-03-02T00:16:32;11.6;;;1.8;;
73315;SDS011;61545;53.726;-0.444;2023-03-02T00:21:31;7.9;;;1.8;;
73315;SDS011;61545;53.726;-0.444;2023-03-02T00:26:32;13.8;;;2.2;;
73315;SDS011;61545;53.726;-0.444;2023-03-02T00:31:31;8.7;;;1.7;;
73315;SDS011;61545;53.726;-0.444;2023-03-02T00:36:31;10.4;;;2.1;;
73315;SDS011;61545;53.726;-0.444;2023-03-02T00:41:31;10.4;;;2.1;;
73315;SDS011;61545;53.726;-0.444;2023-03-02T00:46:31;6.0;;;1.2;;
73315;SDS011;61545;53.726;-0.444;2023-03-02T00:51:31;7.9;;;1.2;;
73315;SDS011;61545;53.726;-0.444;2023-03-02T00:56:31;9.4;;;1.5;;
73315;SDS011;61545;53.726;-0.444;2023-03-02T01:01:31;8.4;;;1.2;;
73315;SDS011;61545;53.726;-0.444;2023-03-02T01:06:31;4.0;;;0.8;;
73315;SDS011;61545;53.726;-0.444;2023-03-02T01:11:31;4.0;;;0.8;;
73315;SDS011;61545;53.726;-0.444;2023-03-02T01:16:31;4.5;;;1.1;;
73315;SDS011;61545;53.726;-0.444;2023-03-02T01:21:31;7.6;;;1.6;;
73315;SDS011;61545;53.726;-0.444;2023-03-02T01:26:31;7.0;;;1.3;;
73315;SDS011;61545;53.726;-0.444;2023-03-02T01:31:31;9.5;;;1.4;;
73315;SDS011;61545;53.726;-0.444;2023-03-02T01:36:31;9.9;;;1.4;;
73315;SDS011;61545;53.726;-0.444;2023-03-02T01:41:31;9.9;;;1.4;;
73315;SDS011;61545;53.726;-0.444;2023-03-02T01:46:31;7.3;;;1.2;;
73315;SDS011;61545;53.726;-0.444;2023-03-02T01:51:34;6.4;;;1.1;;
73315;SDS011;61545;53.726;-0.444;2023-03-02T01:56:32;3.8;;;0.9;;
73315;SDS011;61545;53.726;-0.444;2023-03-02T02:01:31;7.7;;;1.6;;
73315;SDS011;61545;53.726;-0.444;2023-03-02T02:06:33;10.4;;;1.5;;
73315;SDS011;61545;53.726;-0.444;2023-03-02T02:11:31;10.4;;;1.5;;
73315;SDS011;61545;53.726;-0.444;2023-03-02T02:16:31;7.8;;;1.4;;
73315;SDS011;61545;53.726;-0.444;2023-03-02T02:21:31;7.7;;;1.3;;
73315;SDS011;61545;53.726;-0.444;2023-03-02T02:26:32;6.4;;;1.1;;
73315;SDS011;61545;53.726;-0.444;2023-03-02T02:31:33;8.2;;;1.5;;
73315;SDS011;61545;53.726;-0.444;2023-03-02T02:36:32;5.9;;;1.4;;
73315;SDS011;61545;53.726;-0.444;2023-03-02T02:41:33;5.9;;;1.4;;
73315;SDS011;61545;53.726;-0.444;2023-03-02T02:46:31;6.8;;;1.5;;
73315;SDS011;61545;53.726;-0.444;2023-03-02T02:51:31;8.1;;;1.4;;
73315;SDS011;61545;53.726;-0.444;2023-03-02T02:56:32;14.0;;;1.7;;
73315;SDS011;61545;53.726;-0.444;2023-03-02T03:01:31;9.4;;;2.4;;
73315;SDS011;61545;53.726;-0.444;2023-03-02T03:06:32;5.1;;;1;;
73315;SDS011;61545;53.726;-0.444;2023-03-02T03:11:32;5.1;;;1;;
73315;SDS011;61545;53.726;-0.444;2023-03-02T03:16:31;4.8;;;0.8;;
73315;SDS011;61545;53.726;-0.444;2023-03-02T03:21:31;1.5;;;0.5;;
73315;SDS011;61545;53.726;-0.444;2023-03-02T03:26:31;2.3;;;0.4;;
73315;SDS011;61545;53.726;-0.444;2023-03-02T03:31:31;0.7;;;0.3;;
73315;SDS011;61545;53.726;-0.444;2023-03-02T03:36:31;1.3;;;0.2;;
73315;SDS011;61545;53.726;-0.444;2023-03-02T03:41:31;1.3;;;0.2;;
73315;SDS011;61545;53.726;-0.444;2023-03-02T03:46:31;1.4;;;0.3;;
73315;SDS011;61545;53.726;-0.444;2023-03-02T03:51:31;2.3;;;0.3;;
73315;SDS011;61545;53.726;-0.444;2023-03-02T03:56:32;1.7;;;0.4;;
73315;SDS011;61545;53.726;-0.444;2023-03-02T04:01:32;1.3;;;0.2;;
73315;SDS011;61545;53.726;-0.444;2023-03-02T04:06:31;1.6;;;0.4;;
73315;SDS011;61545;53.726;-0.444;2023-03-02T04:11:31;1.6;;;0.4;;
73315;SDS011;61545;53.726;-0.444;2023-03-02T04:16:31;0.9;;;0.3;;
73315;SDS011;61545;53.726;-0.444;2023-03-02T04:21:31;1.9;;;0.5;;
73315;SDS011;61545;53.726;-0.444;2023-03-02T04:26:31;1.0;;;0.5;;
73315;SDS011;61545;53.726;-0.444;2023-03-02T04:31:31;1.0;;;0.4;;
73315;SDS011;61545;53.726;-0.444;2023-03-02T04:36:31;0.8;;;0.4;;
73315;SDS011;61545;53.726;-0.444;2023-03-02T04:41:31;0.8;;;0.4;;
73315;SDS011;61545;53.726;-0.444;2023-03-02T04:46:31;2.4;;;0.5;;
73315;SDS011;61545;53.726;-0.444;2023-03-02T04:51:32;0.8;;;0.5;;
73315;SDS011;61545;53.726;-0.444;2023-03-02T04:56:31;1.6;;;0.4;;
73315;SDS011;61545;53.726;-0.444;2023-03-02T05:01:31;2.0;;;0.5;;
73315;SDS011;61545;53.726;-0.444;2023-03-02T05:06:31;1.7;;;0.7;;
73315;SDS011;61545;53.726;-0.444;2023-03-02T05:11:31;1.7;;;0.7;;
73315;SDS011;61545;53.726;-0.444;2023-03-02T05:16:33;2.0;;;0.6;;
73315;SDS011;61545;53.726;-0.444;2023-03-02T05:21:31;2.9;;;0.8;;
73315;SDS011;61545;53.726;-0.444;2023-03-02T05:26:31;2.1;;;0.9;;
73315;SDS011;61545;53.726;-0.444;2023-03-02T05:31:32;1.9;;;0.7;;
73315;SDS011;61545;53.726;-0.444;2023-03-02T05:36:31;0.9;;;0.6;;
73315;SDS011;61545;53.726;-0.444;2023-03-02T05:41:31;0.9;;;0.6;;
73315;SDS011;61545;53.726;-0.444;2023-03-02T05:46:31;2.3;;;1;;
73315;SDS011;61545;53.726;-0.444;2023-03-02T05:51:31;2.3;;;0.7;;
73315;SDS011;61545;53.726;-0.444;2023-03-02T05:56:31;2.4;;;0.6;;
73315;SDS011;61545;53.726;-0.444;2023-03-02T06:01:31;4.1;;;0.7;;
73315;SDS011;61545;53.726;-0.444;2023-03-02T06:06:31;1.8;;;0.9;;
73315;SDS011;61545;53.726;-0.444;2023-03-02T06:11:31;1.8;;;0.9;;
73315;SDS011;61545;53.726;-0.444;2023-03-02T06:16:31;2.1;;;1;;
73315;SDS011;61545;53.726;-0.444;2023-03-02T06:21:31;1.6;;;0.7;;
73315;SDS011;61545;53.726;-0.444;2023-03-02T06:26:31;2.8;;;1;;
73315;SDS011;61545;53.726;-0.444;2023-03-02T06:31:31;2.5;;;0.8;;
73315;SDS011;61545;53.726;-0.444;2023-03-02T06:36:31;2.0;;;0.9;;
73315;SDS011;61545;53.726;-0.444;2023-03-02T06:41:31;2.0;;;0.9;;
73315;SDS011;61545;53.726;-0.444;2023-03-02T06:46:31;2.4;;;0.9;;
73315;SDS011;61545;53.726;-0.444;2023-03-02T06:51:31;2.5;;;1;;
73315;SDS011;61545;53.726;-0.444;2023-03-02T06:56:31;2.7;;;0.9;;
73315;SDS011;61545;53.726;-0.444;2023-03-02T07:01:31;1.4;;;1;;
73315;SDS011;61545;53.726;-0.444;2023-03-02T07:06:31;3.6;;;1;;
73315;SDS011;61545;53.726;-0.444;2023-03-02T07:11:31;3.6;;;1;;
73315;SDS011;61545;53.726;-0.444;2023-03-02T07:16:32;3.7;;;1.1;;
73315;SDS011;61545;53.726;-0.444;2023-03-02T07:21:31;2.3;;;1.2;;
73315;SDS011;61545;53.726;-0.444;2023-03-02T07:26:31;2.6;;;1;;
73315;SDS011;61545;53.726;-0.444;2023-03-02T07:31:31;2.3;;;1;;
73315;SDS011;61545;53.726;-0.444;2023-03-02T07:36:31;4.1;;;0.9;;
73315;SDS011;61545;53.726;-0.444;2023-03-02T07:41:31;4.1;;;0.9;;
73315;SDS011;61545;53.726;-0.444;2023-03-02T07:46:31;2.3;;;0.6;;
73315;SDS011;61545;53.726;-0.444;2023-03-02T07:51:31;4.6;;;1;;
73315;SDS011;61545;53.726;-0.444;2023-03-02T07:56:31;3.4;;;0.7;;
73315;SDS011;61545;53.726;-0.444;2023-03-02T08:01:31;3.6;;;0.5;;
73315;SDS011;61545;53.726;-0.444;2023-03-02T08:06:31;2.2;;;0.7;;
73315;SDS011;61545;53.726;-0.444;2023-03-02T08:11:31;2.2;;;0.7;;
73315;SDS011;61545;53.726;-0.444;2023-03-02T08:16:31;3.7;;;0.7;;
73315;SDS011;61545;53.726;-0.444;2023-03-02T08:21:31;4.0;;;1;;
73315;SDS011;61545;53.726;-0.444;2023-03-02T08:26:31;4.7;;;0.7;;
73315;SDS011;61545;53.726;-0.444;2023-03-02T08:31:31;1.3;;;0.7;;
73315;SDS011;61545;53.726;-0.444;2023-03-02T08:36:31;3.8;;;1.4;;
73315;SDS011;61545;53.726;-0.444;2023-03-02T08:41:31;3.8;;;1.4;;
73315;SDS011;61545;53.726;-0.444;2023-03-02T08:46:31;3.4;;;1.3;;
73315;SDS011;61545;53.726;-0.444;2023-03-02T08:51:31;5.1;;;1.9;;
73315;SDS011;61545;53.726;-0.444;2023-03-02T08:56:32;8.4;;;2.9;;
73315;SDS011;61545;53.726;-0.444;2023-03-02T09:01:32;10.1;;;3.2;;
73315;SDS011;61545;53.726;-0.444;2023-03-02T09:06:32;7.6;;;2.9;;
73315;SDS011;61545;53.726;-0.444;2023-03-02T09:11:31;7.6;;;2.9;;
73315;SDS011;61545;53.726;-0.444;2023-03-02T09:16:31;4.8;;;1.9;;
73315;SDS011;61545;53.726;-0.444;2023-03-02T09:21:31;3.5;;;1.4;;
73315;SDS011;61545;53.726;-0.444;2023-03-02T09:26:31;3.7;;;1;;
73315;SDS011;61545;53.726;-0.444;2023-03-02T09:31:31;1.6;;;0.5;;
73315;SDS011;61545;53.726;-0.444;2023-03-02T09:36:31;4.0;;;0.7;;
73315;SDS011;61545;53.726;-0.444;2023-03-02T09:41:45;4.0;;;0.7;;
73315;SDS011;61545;53.726;-0.444;2023-03-02T09:46:32;3.2;;;0.8;;
73315;SDS011;61545;53.726;-0.444;2023-03-02T09:51:32;3.3;;;0.5;;
73315;SDS011;61545;53.726;-0.444;2023-03-02T09:56:31;2.1;;;0.7;;
73315;SDS011;61545;53.726;-0.444;2023-03-02T10:01:35;4.1;;;0.7;;
73315;SDS011;61545;53.726;-0.444;2023-03-02T10:06:31;4.4;;;0.9;;
73315;SDS011;61545;53.726;-0.444;2023-03-02T10:11:35;4.4;;;0.9;;
73315;SDS011;61545;53.726;-0.444;2023-03-02T10:16:33;1.9;;;0.6;;
73315;SDS011;61545;53.726;-0.444;2023-03-02T10:21:33;4.5;;;1;;
73315;SDS011;61545;53.726;-0.444;2023-03-02T10:26:37;2.5;;;0.8;;
73315;SDS011;61545;53.726;-0.444;2023-03-02T10:31:31;2.6;;;0.6;;
73315;SDS011;61545;53.726;-0.444;2023-03-02T10:36:36;4.9;;;0.6;;
73315;SDS011;61545;53.726;-0.444;2023-03-02T10:41:32;4.9;;;0.6;;
73315;SDS011;61545;53.726;-0.444;2023-03-02T10:46:38;2.2;;;0.8;;
73315;SDS011;61545;53.726;-0.444;2023-03-02T10:51:32;4.9;;;0.7;;
73315;SDS011;61545;53.726;-0.444;2023-03-02T10:56:31;1.4;;;0.9;;
73315;SDS011;61545;53.726;-0.444;2023-03-02T11:01:31;2.3;;;0.9;;
73315;SDS011;61545;53.726;-0.444;2023-03-02T11:06:31;2.6;;;0.8;;
73315;SDS011;61545;53.726;-0.444;2023-03-02T11:11:31;2.6;;;0.8;;
73315;SDS011;61545;53.726;-0.444;2023-03-02T11:16:31;1.7;;;0.7;;
73315;SDS011;61545;53.726;-0.444;2023-03-02T11:21:33;2.3;;;0.8;;
73315;SDS011;61545;53.726;-0.444;2023-03-02T11:26:33;3.5;;;0.8;;
73315;SDS011;61545;53.726;-0.444;2023-03-02T11:31:34;2.1;;;0.9;;
73315;SDS011;61545;53.726;-0.444;2023-03-02T11:36:37;1.8;;;0.8;;
73315;SDS011;61545;53.726;-0.444;2023-03-02T11:41:31;1.8;;;0.8;;
73315;SDS011;61545;53.726;-0.444;2023-03-02T11:46:31;2.2;;;0.8;;
73315;SDS011;61545;53.726;-0.444;2023-03-02T11:51:33;3.9;;;1.6;;
73315;SDS011;61545;53.726;-0.444;2023-03-02T11:56:39;7.9;;;1.3;;
73315;SDS011;61545;53.726;-0.444;2023-03-02T12:01:32;4.9;;;1.2;;
73315;SDS011;61545;53.726;-0.444;2023-03-02T12:06:35;4.1;;;1.1;;
73315;SDS011;61545;53.726;-0.444;2023-03-02T12:11:33;4.1;;;1.1;;
73315;SDS011;61545;53.726;-0.444;2023-03-02T12:16:35;2.5;;;1;;
73315;SDS011;61545;53.726;-0.444;2023-03-02T12:21:37;7.1;;;1.4;;
73315;SDS011;61545;53.726;-0.444;2023-03-02T12:26:34;4.3;;;1.1;;
73315;SDS011;61545;53.726;-0.444;2023-03-02T12:31:40;3.9;;;1;;
73315;SDS011;61545;53.726;-0.444;2023-03-02T12:36:33;13.8;;;2.7;;
73315;SDS011;61545;53.726;-0.444;2023-03-02T12:41:36;13.8;;;2.7;;
73315;SDS011;61545;53.726;-0.444;2023-03-02T12:46:31;4.8;;;1.2;;
73315;SDS011;61545;53.726;-0.444;2023-03-02T12:51:33;5.4;;;1.5;;
73315;SDS011;61545;53.726;-0.444;2023-03-02T12:56:31;8.3;;;1.8;;
73315;SDS011;61545;53.726;-0.444;2023-03-02T13:01:31;10.9;;;1.6;;
73315;SDS011;61545;53.726;-0.444;2023-03-02T13:06:31;3.6;;;1.2;;
73315;SDS011;61545;53.726;-0.444;2023-03-02T13:11:32;3.6;;;1.2;;
73315;SDS011;61545;53.726;-0.444;2023-03-02T13:16:32;4.0;;;1.2;;
73315;SDS011;61545;53.726;-0.444;2023-03-02T13:21:32;3.5;;;1.6;;
73315;SDS011;61545;53.726;-0.444;2023-03-02T13:26:32;4.0;;;1.1;;
73315;SDS011;61545;53.726;-0.444;2023-03-02T13:31:31;5.1;;;1;;
73315;SDS011;61545;53.726;-0.444;2023-03-02T13:36:33;2.9;;;0.9;;
73315;SDS011;61545;53.726;-0.444;2023-03-02T13:41:32;2.9;;;0.9;;
73315;SDS011;61545;53.726;-0.444;2023-03-02T13:46:33;4.8;;;1.1;;
73315;SDS011;61545;53.726;-0.444;2023-03-02T13:51:32;2.6;;;1.1;;
73315;SDS011;61545;53.726;-0.444;2023-03-02T13:56:32;4.9;;;1.5;;
73315;SDS011;61545;53.726;-0.444;2023-03-02T14:01:31;6.5;;;1.3;;
73315;SDS011;61545;53.726;-0.444;2023-03-02T14:06:31;3.7;;;1.3;;
73315;SDS011;61545;53.726;-0.444;2023-03-02T14:11:33;3.7;;;1.3;;
73315;SDS011;61545;53.726;-0.444;2023-03-02T14:16:31;3.0;;;1.3;;
73315;SDS011;61545;53.726;-0.444;2023-03-02T14:21:31;2.3;;;0.9;;
73315;SDS011;61545;53.726;-0.444;2023-03-02T14:26:31;2.8;;;0.9;;
73315;SDS011;61545;53.726;-0.444;2023-03-02T14:31:31;3.0;;;0.9;;
73315;SDS011;61545;53.726;-0.444;2023-03-02T14:36:32;3.0;;;1;;
73315;SDS011;61545;53.726;-0.444;2023-03-02T14:41:31;3.0;;;1;;
73315;SDS011;61545;53.726;-0.444;2023-03-02T14:46:31;1.1;;;0.7;;
73315;SDS011;61545;53.726;-0.444;2023-03-02T14:51:32;2.5;;;1;;
73315;SDS011;61545;53.726;-0.444;2023-03-02T14:56:31;2.2;;;0.8;;
73315;SDS011;61545;53.726;-0.444;2023-03-02T15:01:31;4.2;;;1.1;;
73315;SDS011;61545;53.726;-0.444;2023-03-02T15:06:32;6.8;;;1.3;;
73315;SDS011;61545;53.726;-0.444;2023-03-02T15:11:31;6.8;;;1.3;;
73315;SDS011;61545;53.726;-0.444;2023-03-02T15:16:31;2.0;;;0.8;;
73315;SDS011;61545;53.726;-0.444;2023-03-02T15:21:31;5.0;;;1.1;;
73315;SDS011;61545;53.726;-0.444;2023-03-02T15:26:31;3.3;;;1;;
73315;SDS011;61545;53.726;-0.444;2023-03-02T15:31:31;3.2;;;1.2;;
73315;SDS011;61545;53.726;-0.444;2023-03-02T15:36:31;3.8;;;1.1;;
73315;SDS011;61545;53.726;-0.444;2023-03-02T15:41:31;3.8;;;1.1;;
73315;SDS011;61545;53.726;-0.444;2023-03-02T15:46:31;1.8;;;0.7;;
73315;SDS011;61545;53.726;-0.444;2023-03-02T15:51:31;4.6;;;1.1;;
73315;SDS011;61545;53.726;-0.444;2023-03-02T15:56:31;4.3;;;1.1;;
73315;SDS011;61545;53.726;-0.444;2023-03-02T16:01:31;3.5;;;1.6;;
73315;SDS011;61545;53.726;-0.444;2023-03-02T16:06:31;3.0;;;1.1;;
73315;SDS011;61545;53.726;-0.444;2023-03-02T16:11:31;3.0;;;1.1;;
73315;SDS011;61545;53.726;-0.444;2023-03-02T16:16:31;5.1;;;1.3;;
73315;SDS011;61545;53.726;-0.444;2023-03-02T16:21:31;5.9;;;1.8;;
73315;SDS011;61545;53.726;-0.444;2023-03-02T16:26:31;3.7;;;1.3;;
73315;SDS011;61545;53.726;-0.444;2023-03-02T16:31:31;4.0;;;1.7;;
73315;SDS011;61545;53.726;-0.444;2023-03-02T16:36:31;3.3;;;1.7;;
73315;SDS011;61545;53.726;-0.444;2023-03-02T16:41:31;3.3;;;1.7;;
73315;SDS011;61545;53.726;-0.444;2023-03-02T16:46:32;2.7;;;1.5;;
73315;SDS011;61545;53.726;-0.444;2023-03-02T16:51:31;2.8;;;0.9;;
73315;SDS011;61545;53.726;-0.444;2023-03-02T16:56:31;3.2;;;0.8;;
73315;SDS011;61545;53.726;-0.444;2023-03-02T17:01:31;8.6;;;3.2;;
73315;SDS011;61545;53.726;-0.444;2023-03-02T17:06:31;7.6;;;3.1;;
73315;SDS011;61545;53.726;-0.444;2023-03-02T17:11:31;7.6;;;3.1;;
73315;SDS011;61545;53.726;-0.444;2023-03-02T17:16:31;7.3;;;2.3;;
73315;SDS011;61545;53.726;-0.444;2023-03-02T17:21:31;5.0;;;1.7;;
73315;SDS011;61545;53.726;-0.444;2023-03-02T17:26:31;2.9;;;1.3;;
73315;SDS011;61545;53.726;-0.444;2023-03-02T17:31:31;4.8;;;1.7;;
73315;SDS011;61545;53.726;-0.444;2023-03-02T17:36:31;2.4;;;1.1;;
73315;SDS011;61545;53.726;-0.444;2023-03-02T17:41:31;2.4;;;1.1;;
73315;SDS011;61545;53.726;-0.444;2023-03-02T17:46:31;3.8;;;1.3;;
73315;SDS011;61545;53.726;-0.444;2023-03-02T17:51:31;1.3;;;0.8;;
73315;SDS011;61545;53.726;-0.444;2023-03-02T17:56:31;4.9;;;0.8;;
73315;SDS011;61545;53.726;-0.444;2023-03-02T18:01:31;2.4;;;1.1;;
73315;SDS011;61545;53.726;-0.444;2023-03-02T18:06:31;3.1;;;0.9;;
73315;SDS011;61545;53.726;-0.444;2023-03-02T18:11:31;3.1;;;0.9;;
73315;SDS011;61545;53.726;-0.444;2023-03-02T18:16:31;1.9;;;1;;
73315;SDS011;61545;53.726;-0.444;2023-03-02T18:21:31;5.1;;;2.1;;
73315;SDS011;61545;53.726;-0.444;2023-03-02T18:26:31;3.3;;;1.5;;
73315;SDS011;61545;53.726;-0.444;2023-03-02T18:31:31;2.3;;;1.1;;
73315;SDS011;61545;53.726;-0.444;2023-03-02T18:36:31;4.0;;;1.5;;
73315;SDS011;61545;53.726;-0.444;2023-03-02T18:41:31;4.0;;;1.5;;
73315;SDS011;61545;53.726;-0.444;2023-03-02T18:46:31;3.3;;;1.3;;
73315;SDS011;61545;53.726;-0.444;2023-03-02T18:51:31;2.7;;;1.3;;
73315;SDS011;61545;53.726;-0.444;2023-03-02T18:56:31;2.8;;;1.3;;
73315;SDS011;61545;53.726;-0.444;2023-03-02T19:01:31;2.8;;;1.4;;
73315;SDS011;61545;53.726;-0.444;2023-03-02T19:06:31;4.3;;;1.4;;
73315;SDS011;61545;53.726;-0.444;2023-03-02T19:11:31;4.3;;;1.4;;
73315;SDS011;61545;53.726;-0.444;2023-03-02T19:16:31;3.0;;;1.1;;
73315;SDS011;61545;53.726;-0.444;2023-03-02T19:21:31;3.3;;;1.5;;
73315;SDS011;61545;53.726;-0.444;2023-03-02T19:26:31;2.9;;;1.1;;
73315;SDS011;61545;53.726;-0.444;2023-03-02T19:31:31;3.3;;;1.5;;
73315;SDS011;61545;53.726;-0.444;2023-03-02T19:36:31;3.8;;;1.1;;
73315;SDS011;61545;53.726;-0.444;2023-03-02T19:41:31;3.8;;;1.1;;
73315;SDS011;61545;53.726;-0.444;2023-03-02T19:46:31;1.6;;;1.2;;
73315;SDS011;61545;53.726;-0.444;2023-03-02T19:51:31;2.6;;;1.3;;
73315;SDS011;61545;53.726;-0.444;2023-03-02T19:56:31;2.0;;;1.1;;
73315;SDS011;61545;53.726;-0.444;2023-03-02T20:01:31;1.6;;;0.7;;
73315;SDS011;61545;53.726;-0.444;2023-03-02T20:06:32;1.5;;;0.8;;
73315;SDS011;61545;53.726;-0.444;2023-03-02T20:11:31;1.5;;;0.8;;
73315;SDS011;61545;53.726;-0.444;2023-03-02T20:16:32;4.2;;;1.2;;
73315;SDS011;61545;53.726;-0.444;2023-03-02T20:21:31;4.3;;;1.4;;
73315;SDS011;61545;53.726;-0.444;2023-03-02T20:26:31;5.5;;;2;;
73315;SDS011;61545;53.726;-0.444;2023-03-02T20:31:31;3.4;;;1.8;;
73315;SDS011;61545;53.726;-0.444;2023-03-02T20:36:32;2.5;;;1.3;;
73315;SDS011;61545;53.726;-0.444;2023-03-02T20:41:31;2.5;;;1.3;;
73315;SDS011;61545;53.726;-0.444;2023-03-02T20:46:33;3.2;;;1.2;;
73315;SDS011;61545;53.726;-0.444;2023-03-02T20:51:31;4.8;;;1.6;;
73315;SDS011;61545;53.726;-0.444;2023-03-02T20:56:31;3.8;;;1.3;;
73315;SDS011;61545;53.726;-0.444;2023-03-02T21:01:31;3.1;;;1.4;;
73315;SDS011;61545;53.726;-0.444;2023-03-02T21:06:31;1.8;;;0.8;;
73315;SDS011;61545;53.726;-0.444;2023-03-02T21:11:31;1.8;;;0.8;;
73315;SDS011;61545;53.726;-0.444;2023-03-02T21:16:32;3.9;;;1;;
73315;SDS011;61545;53.726;-0.444;2023-03-02T21:21:31;2.1;;;0.8;;
73315;SDS011;61545;53.726;-0.444;2023-03-02T21:26:31;1.9;;;1;;
73315;SDS011;61545;53.726;-0.444;2023-03-02T21:31:31;2.8;;;0.9;;
73315;SDS011;61545;53.726;-0.444;2023-03-02T21:36:31;2.3;;;0.9;;
73315;SDS011;61545;53.726;-0.444;2023-03-02T21:41:31;2.3;;;0.9;;
73315;SDS011;61545;53.726;-0.444;2023-03-02T21:46:31;2.6;;;1.1;;
73315;SDS011;61545;53.726;-0.444;2023-03-02T21:51:31;2.3;;;1;;
73315;SDS011;61545;53.726;-0.444;2023-03-02T21:56:31;6.1;;;1.5;;
73315;SDS011;61545;53.726;-0.444;2023-03-02T22:01:31;8.1;;;2.3;;
73315;SDS011;61545;53.726;-0.444;2023-03-02T22:06:32;3.5;;;1;;
73315;SDS011;61545;53.726;-0.444;2023-03-02T22:11:32;3.5;;;1;;
73315;SDS011;61545;53.726;-0.444;2023-03-02T22:16:33;3.3;;;1.5;;
73315;SDS011;61545;53.726;-0.444;2023-03-02T22:21:32;3.3;;;1.4;;
73315;SDS011;61545;53.726;-0.444;2023-03-02T22:26:31;3.8;;;1.2;;
73315;SDS011;61545;53.726;-0.444;2023-03-02T22:31:31;3.6;;;1.3;;
73315;SDS011;61545;53.726;-0.444;2023-03-02T22:36:31;2.2;;;1.2;;
73315;SDS011;61545;53.726;-0.444;2023-03-02T22:41:31;2.2;;;1.2;;
73315;SDS011;61545;53.726;-0.444;2023-03-02T22:46:31;4.3;;;1.7;;
73315;SDS011;61545;53.726;-0.444;2023-03-02T22:51:31;4.6;;;1.4;;
73315;SDS011;61545;53.726;-0.444;2023-03-02T22:56:33;3.1;;;1;;
73315;SDS011;61545;53.726;-0.444;2023-03-02T23:01:36;2.4;;;1;;
73315;SDS011;61545;53.726;-0.444;2023-03-02T23:06:31;2.0;;;0.9;;
73315;SDS011;61545;53.726;-0.444;2023-03-02T23:11:34;2.0;;;0.9;;
73315;SDS011;61545;53.726;-0.444;2023-03-02T23:16:33;6.2;;;2.4;;
73315;SDS011;61545;53.726;-0.444;2023-03-02T23:21:35;15.6;;;5;;
73315;SDS011;61545;53.726;-0.444;2023-03-02T23:26:31;13.3;;;4.8;;
73315;SDS011;61545;53.726;-0.444;2023-03-02T23:31:31;13.2;;;4;;
73315;SDS011;61545;53.726;-0.444;2023-03-02T23:36:31;6.9;;;2.3;;
73315;SDS011;61545;53.726;-0.444;2023-03-02T23:41:31;6.9;;;2.3;;
73315;SDS011;61545;53.726;-0.444;2023-03-02T23:46:31;3.9;;;1.3;;
73315;SDS011;61545;53.726;-0.444;2023-03-02T23:51:31;2.0;;;0.8;;
73315;SDS011;61545;53.726;-0.444;2023-03-02T23:56:31;1.4;;;0.7;;
